Airport View

Enter AWOS ICAO identifier for current METAR.

ex. KFNL

KPHX 251551Z 00000KT 10SM BKN160 BKN200 22/08 A2980 RMK AO2 SLP075 T02170078 $

25 Oct 2020 16:46

Phone: 602-231-8557

Other Area AWOS: KSDL - KLUF - KFFZ - KCHD

TAF AMD KPHX 251438Z 2515/2618 10007KT P6SM FEW100 BKN180 FM251600 17007KT P6SM BKN150 FM251800 23011G17KT P6SM FEW070 SCT150 FM252100 25016G24KT P6SM FEW100 FEW150 FM260400 25011KT P6SM FEW070 SCT120 FM261200 25006KT P6SM SCT120